Terminal Aerodrome Forecast
Issued by NWS

Home | Current Version | Previous Version | Text Only | Print | Product List | Glossary On
Versions: 1 2 3 4 5 6 7 8 9 10 11 12 13 14 15 16 17 18 19 20 21 22 23 24 25 26 27 28 29
000
FTUS46 KLOX 212023 AAA
TAFBUR
TAF AMD
KBUR 212023Z 2120/2218 VRB03KT 6SM BR VCSH FEW006 BKN020 OVC060
     FM212200 VRB05KT P6SM VCSH SCT015 OVC025
     FM220300 27005KT P6SM BKN015 OVC025
     FM221000 VRB05KT P6SM OVC015
     FM221700 VRB03KT P6SM SCT025 BKN100=

USA.gov is the U.S. government's official web portal to all federal, state and local government web resources and services.